Observations for BRIZE NORTON RA, United Kingdom (EGVN)

EGVN 250250Z 26003KT CAVOK 02/00 Q1012 NOSIG
EGVN 250250Z 26003KT CAVOK 02/00 Q1012 BLU NOSIG
EGVN 250150Z 27003KT 9999 BKN040 01/M01 Q1012 NOSIG 
EGVN 250150Z 27003KT 9999 BKN040 01/M01 Q1012 BLU NOSIG
EGVN 250050Z 24003KT 9999 BKN042 BKN150 00/M02 Q1012 BLU NOSIG  
EGVN 250050Z 24003KT 9999 BKN042 BKN150 00/M02 Q1012 NOSIG
EGVN 242350Z 29003KT 9999 FEW045 BKN160 M00/M02 Q1012 NOSIG 
EGVN 242350Z 29003KT 9999 FEW045 BKN160 M00/M02 Q1012 BLU NOSIG
EGVN 242250Z 24002KT CAVOK M01/M03 Q1012 NOSIG  
EGVN 242250Z 24002KT CAVOK M01/M03 Q1012 BLU NOSIG
EGVN 242150Z 26002KT CAVOK M01/M02 Q1012 NOSIG  
EGVN 242150Z 26002KT CAVOK M01/M02 Q1012 BLU NOSIG
EGVN 242050Z 28002KT CAVOK M00/M02 Q1012 NOSIG  
EGVN 242050Z 28002KT CAVOK M00/M02 Q1012 BLU NOSIG
EGVN 241950Z 28002KT CAVOK M01/M02 Q1012 NOSIG  
EGVN 241950Z 28002KT CAVOK M01/M02 Q1012 BLU NOSIG
EGVN 241850Z 20003KT CAVOK 01/M02 Q1012 NOSIG   
EGVN 241850Z 20003KT CAVOK 01/M02 Q1012 BLU NOSIG
EGVN 241750Z 29003KT CAVOK 03/M02 Q1012 NOSIG   
EGVN 241750Z 29003KT CAVOK 03/M02 Q1012 BLU NOSIG
EGVN 241650Z 26003KT CAVOK 03/M01 Q1012 NOSIG   
EGVN 241650Z 26003KT CAVOK 03/M01 Q1012 BLU NOSIG
EGVN 241550Z 24001KT CAVOK 06/M02 Q1012 NOSIG   
EGVN 241550Z 24001KT CAVOK 06/M02 Q1012 BLU NOSIG
EGVN 241450Z 28003KT CAVOK 08/M03 Q1012 BLU NOSIG   
EGVN 241450Z 28003KT CAVOK 08/M03 Q1012 NOSIG
EGVN 241350Z 28003KT 9999 FEW020 08/M02 Q1011 BLU NOSIG 
EGVN 241350Z 28003KT 9999 FEW020 08/M02 Q1011 NOSIG
EGVN 241250Z 31003KT 9999 FEW035 SCT170 BKN250 07/M02 Q1011 NOSIG   
EGVN 241250Z 31003KT 9999 FEW035 SCT170 BKN250 07/M02 Q1011 BLU NOSIG
EGVN 241150Z 34004KT 9999 FEW030 SCT180 07/M00 Q1011 NOSIG  
EGVN 241150Z 34004KT 9999 FEW030 SCT180 07/M00 Q1011 BLU NOSIG
EGVN 241050Z 23002KT 9999 FEW030 BKN180 06/02 Q1011 BLU NOSIG   
EGVN 241050Z 23002KT 9999 FEW030 BKN180 06/02 Q1011 NOSIG
EGVN 240950Z 26001KT 9999 MIFG FEW030 BKN300 04/02 Q1011 NOSIG  
EGVN 240950Z 26001KT 9999 MIFG FEW030 BKN300 04/02 Q1011 BLU NOSIG
EGVN 240850Z 26004KT 9999 MIFG FEW030 SCT160 03/02 Q1010 BLU NOSIG  
EGVN 240850Z 26004KT 9999 MIFG FEW030 SCT160 03/02 Q1010 NOSIG
EGVN 240750Z 29002KT 9999 MIFG FEW030 03/02 Q1009 BLU NOSIG 
EGVN 240750Z 29002KT 9999 MIFG FEW030 03/02 Q1009 NOSIG
EGVN 240650Z 25001KT CAVOK 02/01 Q1009 BLU NOSIG
EGVN 240650Z 25001KT CAVOK 02/01 Q1009 NOSIG
EGVN 240550Z 28002KT CAVOK 02/01 Q1008 NOSIG
EGVN 240550Z 28002KT CAVOK 02/01 Q1008 BLU NOSIG
EGVN 240450Z 25002KT CAVOK 04/03 Q1007 NOSIG
EGVN 240450Z 25002KT CAVOK 04/03 Q1007 BLU NOSIG
EGVN 240350Z 27003KT CAVOK 04/04 Q1007 BLU NOSIG
EGVN 240350Z 27003KT CAVOK 04/04 Q1007 NOSIG
EGVN 240250Z 28003KT CAVOK 05/04 Q1006 BLU NOSIG
EGVN 240250Z 28003KT CAVOK 05/04 Q1006 NOSIG